Terminal Aerodrome Forecast
Issued by NWS Mobile, AL

Home | Current Version | Previous Version | Text Only | Print | Product List | Glossary On
Versions: 1 2 3 4 5 6 7 8 9 10 11 12 13 14 15 16 17 18 19 20 21 22 23 24 25 26 27 28 29 30
879
FTUS44 KMOB 301734
TAFPNS
TAF
KPNS 301734Z 3018/0118 10004KT P6SM VCTS SCT035CB
      TEMPO 3019/3023 VRB25KT 2SM TSRA BKN025CB
     FM010300 15002KT P6SM FEW250
     FM010900 00000KT P6SM VCTS SCT035CB
     FM011500 35004KT P6SM SCT250=

USA.gov is the U.S. government's official web portal to all federal, state and local government web resources and services.